sensor_id;sensor_type;location;lat;lon;timestamp;temperature;humidity
40996;DHT22;26723;57.478;12.066;2023-09-07T00:00:13;16.50;99.90
40996;DHT22;26723;57.478;12.066;2023-09-07T00:03:22;16.60;99.90
40996;DHT22;26723;57.478;12.066;2023-09-07T00:06:30;16.70;99.90
40996;DHT22;26723;57.478;12.066;2023-09-07T00:09:39;16.80;99.90
40996;DHT22;26723;57.478;12.066;2023-09-07T00:12:49;16.80;99.90
40996;DHT22;26723;57.478;12.066;2023-09-07T00:15:58;16.90;99.90
40996;DHT22;26723;57.478;12.066;2023-09-07T00:19:08;16.80;99.90
40996;DHT22;26723;57.478;12.066;2023-09-07T00:22:16;16.90;99.90
40996;DHT22;26723;57.478;12.066;2023-09-07T00:25:25;16.80;99.90
40996;DHT22;26723;57.478;12.066;2023-09-07T00:28:35;16.80;99.90
40996;DHT22;26723;57.478;12.066;2023-09-07T00:31:44;16.90;99.90
40996;DHT22;26723;57.478;12.066;2023-09-07T00:34:52;16.80;99.90
40996;DHT22;26723;57.478;12.066;2023-09-07T00:38:01;16.80;99.90
40996;DHT22;26723;57.478;12.066;2023-09-07T00:41:11;16.80;99.90
40996;DHT22;26723;57.478;12.066;2023-09-07T00:44:21;16.80;99.90
40996;DHT22;26723;57.478;12.066;2023-09-07T00:47:31;16.80;99.90
40996;DHT22;26723;57.478;12.066;2023-09-07T00:50:42;16.70;99.90
40996;DHT22;26723;57.478;12.066;2023-09-07T00:53:51;16.70;99.90
40996;DHT22;26723;57.478;12.066;2023-09-07T00:57:00;16.60;99.90
40996;DHT22;26723;57.478;12.066;2023-09-07T01:00:12;16.60;99.90
40996;DHT22;26723;57.478;12.066;2023-09-07T01:03:21;16.60;99.90
40996;DHT22;26723;57.478;12.066;2023-09-07T01:06:31;16.60;99.90
40996;DHT22;26723;57.478;12.066;2023-09-07T01:09:42;16.60;99.90
40996;DHT22;26723;57.478;12.066;2023-09-07T01:12:52;16.70;99.90
40996;DHT22;26723;57.478;12.066;2023-09-07T01:16:01;16.60;99.90
40996;DHT22;26723;57.478;12.066;2023-09-07T01:19:11;16.60;99.90
40996;DHT22;26723;57.478;12.066;2023-09-07T01:22:21;16.50;99.90
40996;DHT22;26723;57.478;12.066;2023-09-07T01:25:31;16.50;99.90
40996;DHT22;26723;57.478;12.066;2023-09-07T01:28:41;16.50;99.90
40996;DHT22;26723;57.478;12.066;2023-09-07T01:31:50;16.50;99.90
40996;DHT22;26723;57.478;12.066;2023-09-07T01:34:59;16.50;99.90
40996;DHT22;26723;57.478;12.066;2023-09-07T01:38:11;16.60;99.90
40996;DHT22;26723;57.478;12.066;2023-09-07T01:41:19;16.60;99.90
40996;DHT22;26723;57.478;12.066;2023-09-07T01:44:28;16.50;99.90
40996;DHT22;26723;57.478;12.066;2023-09-07T01:47:37;16.60;99.90
40996;DHT22;26723;57.478;12.066;2023-09-07T01:50:46;16.50;99.90
40996;DHT22;26723;57.478;12.066;2023-09-07T01:53:56;16.50;99.90
40996;DHT22;26723;57.478;12.066;2023-09-07T01:57:05;16.50;99.90
40996;DHT22;26723;57.478;12.066;2023-09-07T02:00:13;16.50;99.90
40996;DHT22;26723;57.478;12.066;2023-09-07T02:03:22;16.50;99.90
40996;DHT22;26723;57.478;12.066;2023-09-07T02:06:31;16.50;99.90
40996;DHT22;26723;57.478;12.066;2023-09-07T02:09:41;16.40;99.90
40996;DHT22;26723;57.478;12.066;2023-09-07T02:12:50;16.40;99.90
40996;DHT22;26723;57.478;12.066;2023-09-07T02:16:02;16.50;99.90
40996;DHT22;26723;57.478;12.066;2023-09-07T02:19:13;16.50;99.90
40996;DHT22;26723;57.478;12.066;2023-09-07T02:22:22;16.40;99.90
40996;DHT22;26723;57.478;12.066;2023-09-07T02:25:32;16.40;99.90
40996;DHT22;26723;57.478;12.066;2023-09-07T02:28:41;16.50;99.90
40996;DHT22;26723;57.478;12.066;2023-09-07T02:31:50;16.50;99.90
40996;DHT22;26723;57.478;12.066;2023-09-07T02:35:00;16.50;99.90
40996;DHT22;26723;57.478;12.066;2023-09-07T02:38:08;16.40;99.90
40996;DHT22;26723;57.478;12.066;2023-09-07T02:41:18;16.40;99.90
40996;DHT22;26723;57.478;12.066;2023-09-07T02:44:28;16.40;99.90
40996;DHT22;26723;57.478;12.066;2023-09-07T02:47:37;16.40;99.90
40996;DHT22;26723;57.478;12.066;2023-09-07T02:50:45;16.40;99.90
40996;DHT22;26723;57.478;12.066;2023-09-07T02:53:56;16.40;99.90
40996;DHT22;26723;57.478;12.066;2023-09-07T02:57:08;16.40;99.90
40996;DHT22;26723;57.478;12.066;2023-09-07T03:00:17;16.40;99.90
40996;DHT22;26723;57.478;12.066;2023-09-07T03:03:26;16.40;99.90
40996;DHT22;26723;57.478;12.066;2023-09-07T03:06:34;16.40;99.90
40996;DHT22;26723;57.478;12.066;2023-09-07T03:09:43;16.40;99.90
40996;DHT22;26723;57.478;12.066;2023-09-07T03:12:54;16.40;99.90
40996;DHT22;26723;57.478;12.066;2023-09-07T03:16:04;16.40;99.90
40996;DHT22;26723;57.478;12.066;2023-09-07T03:19:13;16.30;99.90
40996;DHT22;26723;57.478;12.066;2023-09-07T03:22:22;16.30;99.90
40996;DHT22;26723;57.478;12.066;2023-09-07T03:25:31;16.20;99.90
40996;DHT22;26723;57.478;12.066;2023-09-07T03:28:41;16.20;99.90
40996;DHT22;26723;57.478;12.066;2023-09-07T03:31:50;16.20;99.90
40996;DHT22;26723;57.478;12.066;2023-09-07T03:34:59;16.10;99.90
40996;DHT22;26723;57.478;12.066;2023-09-07T03:38:07;16.10;99.90
40996;DHT22;26723;57.478;12.066;2023-09-07T03:41:16;16.00;99.90
40996;DHT22;26723;57.478;12.066;2023-09-07T03:44:26;16.00;99.90
40996;DHT22;26723;57.478;12.066;2023-09-07T03:47:36;16.00;99.90
40996;DHT22;26723;57.478;12.066;2023-09-07T03:50:46;15.90;99.90
40996;DHT22;26723;57.478;12.066;2023-09-07T03:53:54;15.90;99.90
40996;DHT22;26723;57.478;12.066;2023-09-07T03:57:03;15.90;99.90
40996;DHT22;26723;57.478;12.066;2023-09-07T04:00:15;15.90;99.90
40996;DHT22;26723;57.478;12.066;2023-09-07T04:03:27;15.90;99.90
40996;DHT22;26723;57.478;12.066;2023-09-07T04:06:36;15.90;99.90
40996;DHT22;26723;57.478;12.066;2023-09-07T04:09:45;15.90;99.90
40996;DHT22;26723;57.478;12.066;2023-09-07T04:12:54;15.90;99.90
40996;DHT22;26723;57.478;12.066;2023-09-07T04:16:04;15.90;99.90
40996;DHT22;26723;57.478;12.066;2023-09-07T04:19:13;15.90;99.90
40996;DHT22;26723;57.478;12.066;2023-09-07T04:22:21;16.00;99.90
40996;DHT22;26723;57.478;12.066;2023-09-07T04:25:30;16.00;99.90
40996;DHT22;26723;57.478;12.066;2023-09-07T04:28:39;16.00;99.90
40996;DHT22;26723;57.478;12.066;2023-09-07T04:31:49;16.00;99.90
40996;DHT22;26723;57.478;12.066;2023-09-07T04:34:58;15.90;99.90
40996;DHT22;26723;57.478;12.066;2023-09-07T04:38:10;15.90;99.90
40996;DHT22;26723;57.478;12.066;2023-09-07T04:41:19;16.00;99.90
40996;DHT22;26723;57.478;12.066;2023-09-07T04:44:27;16.00;99.90
40996;DHT22;26723;57.478;12.066;2023-09-07T04:47:37;16.00;99.90
40996;DHT22;26723;57.478;12.066;2023-09-07T04:50:46;16.00;99.90
40996;DHT22;26723;57.478;12.066;2023-09-07T04:53:54;16.00;99.90
40996;DHT22;26723;57.478;12.066;2023-09-07T04:57:03;16.10;99.90
40996;DHT22;26723;57.478;12.066;2023-09-07T05:00:13;16.00;99.90
40996;DHT22;26723;57.478;12.066;2023-09-07T05:03:23;16.00;99.90
40996;DHT22;26723;57.478;12.066;2023-09-07T05:06:32;16.00;99.90
40996;DHT22;26723;57.478;12.066;2023-09-07T05:09:45;16.00;99.90
40996;DHT22;26723;57.478;12.066;2023-09-07T05:12:54;16.00;99.90
40996;DHT22;26723;57.478;12.066;2023-09-07T05:16:03;15.90;99.90
40996;DHT22;26723;57.478;12.066;2023-09-07T05:19:15;15.90;99.90
40996;DHT22;26723;57.478;12.066;2023-09-07T05:22:25;16.00;99.90
40996;DHT22;26723;57.478;12.066;2023-09-07T05:25:34;16.00;99.90
40996;DHT22;26723;57.478;12.066;2023-09-07T05:28:43;16.00;99.90
40996;DHT22;26723;57.478;12.066;2023-09-07T05:31:53;16.00;99.90
40996;DHT22;26723;57.478;12.066;2023-09-07T05:35:05;15.90;99.90
40996;DHT22;26723;57.478;12.066;2023-09-07T05:38:14;16.00;99.90
40996;DHT22;26723;57.478;12.066;2023-09-07T05:41:24;16.00;99.90
40996;DHT22;26723;57.478;12.066;2023-09-07T05:44:33;16.00;99.90
40996;DHT22;26723;57.478;12.066;2023-09-07T05:47:42;16.00;99.90
40996;DHT22;26723;57.478;12.066;2023-09-07T05:50:53;16.00;99.90
40996;DHT22;26723;57.478;12.066;2023-09-07T05:54:02;16.00;99.90
40996;DHT22;26723;57.478;12.066;2023-09-07T05:57:10;16.00;99.90
40996;DHT22;26723;57.478;12.066;2023-09-07T06:00:19;16.00;99.90
40996;DHT22;26723;57.478;12.066;2023-09-07T06:03:28;16.00;99.90
40996;DHT22;26723;57.478;12.066;2023-09-07T06:06:38;16.00;99.90
40996;DHT22;26723;57.478;12.066;2023-09-07T06:09:47;16.00;99.90
40996;DHT22;26723;57.478;12.066;2023-09-07T06:12:56;16.00;99.90
40996;DHT22;26723;57.478;12.066;2023-09-07T06:16:08;16.00;99.90
40996;DHT22;26723;57.478;12.066;2023-09-07T06:19:17;16.00;99.90
40996;DHT22;26723;57.478;12.066;2023-09-07T06:22:27;16.00;99.90
40996;DHT22;26723;57.478;12.066;2023-09-07T06:25:35;16.00;99.90
40996;DHT22;26723;57.478;12.066;2023-09-07T06:28:44;16.00;99.90
40996;DHT22;26723;57.478;12.066;2023-09-07T06:31:53;16.00;99.90
40996;DHT22;26723;57.478;12.066;2023-09-07T06:35:03;16.00;99.90
40996;DHT22;26723;57.478;12.066;2023-09-07T06:38:13;16.00;99.90
40996;DHT22;26723;57.478;12.066;2023-09-07T06:41:22;16.10;99.90
40996;DHT22;26723;57.478;12.066;2023-09-07T06:44:34;16.10;99.90
40996;DHT22;26723;57.478;12.066;2023-09-07T06:47:42;16.20;99.90
40996;DHT22;26723;57.478;12.066;2023-09-07T06:50:51;16.10;99.90
40996;DHT22;26723;57.478;12.066;2023-09-07T06:54:01;16.20;99.90
40996;DHT22;26723;57.478;12.066;2023-09-07T06:57:10;16.20;99.90
40996;DHT22;26723;57.478;12.066;2023-09-07T07:00:19;16.20;99.90
40996;DHT22;26723;57.478;12.066;2023-09-07T07:03:30;16.30;99.90
40996;DHT22;26723;57.478;12.066;2023-09-07T07:06:39;16.30;99.90
40996;DHT22;26723;57.478;12.066;2023-09-07T07:09:49;16.30;99.90
40996;DHT22;26723;57.478;12.066;2023-09-07T07:13:00;16.20;99.90
40996;DHT22;26723;57.478;12.066;2023-09-07T07:16:08;16.30;99.90
40996;DHT22;26723;57.478;12.066;2023-09-07T07:19:17;16.30;99.90
40996;DHT22;26723;57.478;12.066;2023-09-07T07:22:26;16.30;99.90
40996;DHT22;26723;57.478;12.066;2023-09-07T07:25:36;16.10;99.90
40996;DHT22;26723;57.478;12.066;2023-09-07T07:28:45;16.20;99.90
40996;DHT22;26723;57.478;12.066;2023-09-07T07:31:54;16.30;99.90
40996;DHT22;26723;57.478;12.066;2023-09-07T07:35:03;16.30;99.90
40996;DHT22;26723;57.478;12.066;2023-09-07T07:38:14;16.30;99.90
40996;DHT22;26723;57.478;12.066;2023-09-07T07:41:26;16.30;99.90
40996;DHT22;26723;57.478;12.066;2023-09-07T07:44:36;16.30;99.90
40996;DHT22;26723;57.478;12.066;2023-09-07T07:47:47;16.40;99.90
40996;DHT22;26723;57.478;12.066;2023-09-07T07:50:57;16.30;99.90
40996;DHT22;26723;57.478;12.066;2023-09-07T07:54:05;16.30;99.90
40996;DHT22;26723;57.478;12.066;2023-09-07T07:57:16;16.40;99.90
40996;DHT22;26723;57.478;12.066;2023-09-07T08:00:24;16.40;99.90
40996;DHT22;26723;57.478;12.066;2023-09-07T08:03:34;16.40;99.90
40996;DHT22;26723;57.478;12.066;2023-09-07T08:06:43;16.40;99.90
40996;DHT22;26723;57.478;12.066;2023-09-07T08:09:52;16.40;99.90
40996;DHT22;26723;57.478;12.066;2023-09-07T08:13:04;16.40;99.90
40996;DHT22;26723;57.478;12.066;2023-09-07T08:16:12;16.50;99.90
40996;DHT22;26723;57.478;12.066;2023-09-07T08:19:21;16.60;99.90
40996;DHT22;26723;57.478;12.066;2023-09-07T08:22:30;16.60;99.90
40996;DHT22;26723;57.478;12.066;2023-09-07T08:25:42;16.60;99.90
40996;DHT22;26723;57.478;12.066;2023-09-07T08:28:56;16.70;99.90
40996;DHT22;26723;57.478;12.066;2023-09-07T08:32:05;16.60;99.90
40996;DHT22;26723;57.478;12.066;2023-09-07T08:35:15;16.60;99.90
40996;DHT22;26723;57.478;12.066;2023-09-07T08:38:24;16.70;99.90
40996;DHT22;26723;57.478;12.066;2023-09-07T08:41:36;16.80;99.90
40996;DHT22;26723;57.478;12.066;2023-09-07T08:45:11;16.70;99.90
40996;DHT22;26723;57.478;12.066;2023-09-07T08:48:23;16.70;99.90
40996;DHT22;26723;57.478;12.066;2023-09-07T08:51:32;16.80;99.90
40996;DHT22;26723;57.478;12.066;2023-09-07T08:54:42;16.90;99.90
40996;DHT22;26723;57.478;12.066;2023-09-07T08:57:51;16.90;99.90
40996;DHT22;26723;57.478;12.066;2023-09-07T09:01:01;17.00;99.90
40996;DHT22;26723;57.478;12.066;2023-09-07T09:04:12;17.10;99.90
40996;DHT22;26723;57.478;12.066;2023-09-07T09:07:21;17.20;99.90
40996;DHT22;26723;57.478;12.066;2023-09-07T09:10:30;17.30;99.90
40996;DHT22;26723;57.478;12.066;2023-09-07T09:13:40;17.40;99.90
40996;DHT22;26723;57.478;12.066;2023-09-07T09:16:51;17.50;99.90
40996;DHT22;26723;57.478;12.066;2023-09-07T09:19:59;17.50;99.90
40996;DHT22;26723;57.478;12.066;2023-09-07T09:23:08;17.50;99.90
40996;DHT22;26723;57.478;12.066;2023-09-07T09:26:18;17.60;99.90
40996;DHT22;26723;57.478;12.066;2023-09-07T09:29:27;17.60;99.90
40996;DHT22;26723;57.478;12.066;2023-09-07T09:32:37;17.50;99.90
40996;DHT22;26723;57.478;12.066;2023-09-07T09:35:47;17.60;99.90
40996;DHT22;26723;57.478;12.066;2023-09-07T09:38:56;17.70;99.90
40996;DHT22;26723;57.478;12.066;2023-09-07T09:42:04;17.90;99.90
40996;DHT22;26723;57.478;12.066;2023-09-07T09:45:14;18.00;99.90
40996;DHT22;26723;57.478;12.066;2023-09-07T09:48:25;18.10;99.90
40996;DHT22;26723;57.478;12.066;2023-09-07T09:51:35;18.30;99.90
40996;DHT22;26723;57.478;12.066;2023-09-07T09:54:45;18.30;99.90
40996;DHT22;26723;57.478;12.066;2023-09-07T09:57:54;18.30;99.90
40996;DHT22;26723;57.478;12.066;2023-09-07T10:01:05;18.40;99.90
40996;DHT22;26723;57.478;12.066;2023-09-07T10:04:17;18.50;99.90
40996;DHT22;26723;57.478;12.066;2023-09-07T10:07:41;19.00;99.90
40996;DHT22;26723;57.478;12.066;2023-09-07T10:10:53;19.60;99.90
40996;DHT22;26723;57.478;12.066;2023-09-07T10:14:02;19.90;99.90
40996;DHT22;26723;57.478;12.066;2023-09-07T10:17:22;19.90;99.90
40996;DHT22;26723;57.478;12.066;2023-09-07T10:20:49;19.70;99.90
40996;DHT22;26723;57.478;12.066;2023-09-07T10:23:58;19.70;99.90
40996;DHT22;26723;57.478;12.066;2023-09-07T10:27:08;19.60;99.90
40996;DHT22;26723;57.478;12.066;2023-09-07T10:30:19;19.50;99.90
40996;DHT22;26723;57.478;12.066;2023-09-07T10:33:31;19.60;99.90
40996;DHT22;26723;57.478;12.066;2023-09-07T10:36:42;19.30;99.90
40996;DHT22;26723;57.478;12.066;2023-09-07T10:39:50;19.40;99.90
40996;DHT22;26723;57.478;12.066;2023-09-07T10:43:02;19.60;99.90
40996;DHT22;26723;57.478;12.066;2023-09-07T10:46:12;19.70;99.90
40996;DHT22;26723;57.478;12.066;2023-09-07T10:49:20;20.00;99.90
40996;DHT22;26723;57.478;12.066;2023-09-07T10:52:30;20.60;99.90
40996;DHT22;26723;57.478;12.066;2023-09-07T10:55:39;20.70;99.90
40996;DHT22;26723;57.478;12.066;2023-09-07T10:58:48;20.40;99.90
40996;DHT22;26723;57.478;12.066;2023-09-07T11:02:04;20.50;99.90
40996;DHT22;26723;57.478;12.066;2023-09-07T11:05:12;20.80;99.90
40996;DHT22;26723;57.478;12.066;2023-09-07T11:08:23;21.00;99.90
40996;DHT22;26723;57.478;12.066;2023-09-07T11:11:32;21.10;99.90
40996;DHT22;26723;57.478;12.066;2023-09-07T11:14:41;21.50;99.90
40996;DHT22;26723;57.478;12.066;2023-09-07T11:17:50;22.00;99.90
40996;DHT22;26723;57.478;12.066;2023-09-07T11:21:00;22.20;99.90
40996;DHT22;26723;57.478;12.066;2023-09-07T11:24:12;22.30;99.90
40996;DHT22;26723;57.478;12.066;2023-09-07T11:27:21;22.20;99.90
40996;DHT22;26723;57.478;12.066;2023-09-07T11:30:30;22.00;99.90
40996;DHT22;26723;57.478;12.066;2023-09-07T11:33:41;22.10;99.90
40996;DHT22;26723;57.478;12.066;2023-09-07T11:36:49;21.90;99.90
40996;DHT22;26723;57.478;12.066;2023-09-07T11:40:02;21.70;99.90
40996;DHT22;26723;57.478;12.066;2023-09-07T11:43:18;21.70;99.90
40996;DHT22;26723;57.478;12.066;2023-09-07T11:46:27;21.40;99.90
40996;DHT22;26723;57.478;12.066;2023-09-07T11:49:35;21.40;99.90
40996;DHT22;26723;57.478;12.066;2023-09-07T11:52:45;21.30;99.90
40996;DHT22;26723;57.478;12.066;2023-09-07T11:55:56;21.20;99.90
40996;DHT22;26723;57.478;12.066;2023-09-07T11:59:05;21.20;99.90
40996;DHT22;26723;57.478;12.066;2023-09-07T12:02:13;21.20;99.90
40996;DHT22;26723;57.478;12.066;2023-09-07T12:05:23;21.20;99.90
40996;DHT22;26723;57.478;12.066;2023-09-07T12:08:33;21.20;99.90
40996;DHT22;26723;57.478;12.066;2023-09-07T12:11:45;21.10;99.90
40996;DHT22;26723;57.478;12.066;2023-09-07T12:14:53;21.00;99.90
40996;DHT22;26723;57.478;12.066;2023-09-07T12:18:03;21.00;99.90
40996;DHT22;26723;57.478;12.066;2023-09-07T12:21:14;20.90;99.90
40996;DHT22;26723;57.478;12.066;2023-09-07T12:24:23;21.10;99.90
40996;DHT22;26723;57.478;12.066;2023-09-07T12:27:33;21.20;99.90
40996;DHT22;26723;57.478;12.066;2023-09-07T12:31:00;21.20;99.90
40996;DHT22;26723;57.478;12.066;2023-09-07T12:34:08;21.20;99.90
40996;DHT22;26723;57.478;12.066;2023-09-07T12:37:17;21.10;99.90
40996;DHT22;26723;57.478;12.066;2023-09-07T12:40:27;21.10;99.90
40996;DHT22;26723;57.478;12.066;2023-09-07T12:43:37;21.20;99.90
40996;DHT22;26723;57.478;12.066;2023-09-07T12:46:47;21.00;99.90
40996;DHT22;26723;57.478;12.066;2023-09-07T12:49:56;21.10;99.90
40996;DHT22;26723;57.478;12.066;2023-09-07T12:53:05;21.00;99.90
40996;DHT22;26723;57.478;12.066;2023-09-07T12:56:14;21.10;99.90
40996;DHT22;26723;57.478;12.066;2023-09-07T12:59:24;21.10;99.90
40996;DHT22;26723;57.478;12.066;2023-09-07T13:02:33;21.20;99.90
40996;DHT22;26723;57.478;12.066;2023-09-07T13:05:42;21.20;99.90
40996;DHT22;26723;57.478;12.066;2023-09-07T13:08:50;21.30;99.90
40996;DHT22;26723;57.478;12.066;2023-09-07T13:11:59;21.20;99.90
40996;DHT22;26723;57.478;12.066;2023-09-07T13:15:10;21.20;99.90
40996;DHT22;26723;57.478;12.066;2023-09-07T13:18:18;21.30;99.90
40996;DHT22;26723;57.478;12.066;2023-09-07T13:21:27;21.30;99.90
40996;DHT22;26723;57.478;12.066;2023-09-07T13:24:35;21.30;99.90
40996;DHT22;26723;57.478;12.066;2023-09-07T13:27:44;21.20;99.90
40996;DHT22;26723;57.478;12.066;2023-09-07T13:30:54;21.30;99.90
40996;DHT22;26723;57.478;12.066;2023-09-07T13:34:03;21.20;99.90
40996;DHT22;26723;57.478;12.066;2023-09-07T13:37:12;21.20;99.90
40996;DHT22;26723;57.478;12.066;2023-09-07T13:40:21;21.10;99.90
40996;DHT22;26723;57.478;12.066;2023-09-07T13:43:31;21.20;99.90
40996;DHT22;26723;57.478;12.066;2023-09-07T13:46:44;21.00;99.90
40996;DHT22;26723;57.478;12.066;2023-09-07T13:49:52;21.00;99.90
40996;DHT22;26723;57.478;12.066;2023-09-07T13:53:02;21.00;99.90
40996;DHT22;26723;57.478;12.066;2023-09-07T13:56:10;21.00;99.90
40996;DHT22;26723;57.478;12.066;2023-09-07T13:59:19;21.00;99.90
40996;DHT22;26723;57.478;12.066;2023-09-07T14:02:29;21.00;99.90
40996;DHT22;26723;57.478;12.066;2023-09-07T14:05:40;21.00;99.90
40996;DHT22;26723;57.478;12.066;2023-09-07T14:08:49;21.10;99.90
40996;DHT22;26723;57.478;12.066;2023-09-07T14:11:58;21.00;99.90
40996;DHT22;26723;57.478;12.066;2023-09-07T14:15:08;20.90;99.90
40996;DHT22;26723;57.478;12.066;2023-09-07T14:18:18;21.00;99.90
40996;DHT22;26723;57.478;12.066;2023-09-07T14:21:27;21.00;99.90
40996;DHT22;26723;57.478;12.066;2023-09-07T14:24:35;21.00;99.90
40996;DHT22;26723;57.478;12.066;2023-09-07T14:27:44;21.00;99.90
40996;DHT22;26723;57.478;12.066;2023-09-07T14:30:52;21.00;99.90
40996;DHT22;26723;57.478;12.066;2023-09-07T14:34:03;21.00;99.90
40996;DHT22;26723;57.478;12.066;2023-09-07T14:37:12;20.90;99.90
40996;DHT22;26723;57.478;12.066;2023-09-07T14:40:23;21.00;99.90
40996;DHT22;26723;57.478;12.066;2023-09-07T14:43:33;20.90;99.90
40996;DHT22;26723;57.478;12.066;2023-09-07T14:46:41;20.80;99.90
40996;DHT22;26723;57.478;12.066;2023-09-07T14:49:52;20.80;99.90
40996;DHT22;26723;57.478;12.066;2023-09-07T14:53:03;20.90;99.90
40996;DHT22;26723;57.478;12.066;2023-09-07T14:56:39;20.90;99.90
40996;DHT22;26723;57.478;12.066;2023-09-07T14:59:48;20.80;99.90
40996;DHT22;26723;57.478;12.066;2023-09-07T15:02:57;20.90;99.90
40996;DHT22;26723;57.478;12.066;2023-09-07T15:06:08;20.90;99.90
40996;DHT22;26723;57.478;12.066;2023-09-07T15:09:21;20.90;99.90
40996;DHT22;26723;57.478;12.066;2023-09-07T15:12:30;20.80;99.90
40996;DHT22;26723;57.478;12.066;2023-09-07T15:15:38;20.90;99.90
40996;DHT22;26723;57.478;12.066;2023-09-07T15:18:47;20.90;99.90
40996;DHT22;26723;57.478;12.066;2023-09-07T15:22:00;20.90;99.90
40996;DHT22;26723;57.478;12.066;2023-09-07T15:25:09;20.80;99.90
40996;DHT22;26723;57.478;12.066;2023-09-07T15:28:18;20.70;99.90
40996;DHT22;26723;57.478;12.066;2023-09-07T15:31:29;20.80;99.90
40996;DHT22;26723;57.478;12.066;2023-09-07T15:34:39;20.80;99.90
40996;DHT22;26723;57.478;12.066;2023-09-07T15:37:49;20.80;99.90
40996;DHT22;26723;57.478;12.066;2023-09-07T15:40:57;20.70;99.90
40996;DHT22;26723;57.478;12.066;2023-09-07T15:44:06;20.70;99.90
40996;DHT22;26723;57.478;12.066;2023-09-07T15:47:15;20.70;99.90
40996;DHT22;26723;57.478;12.066;2023-09-07T15:50:24;20.60;99.90
40996;DHT22;26723;57.478;12.066;2023-09-07T15:53:34;20.60;99.90
40996;DHT22;26723;57.478;12.066;2023-09-07T15:56:42;20.60;99.90
40996;DHT22;26723;57.478;12.066;2023-09-07T15:59:51;20.50;99.90
40996;DHT22;26723;57.478;12.066;2023-09-07T16:03:00;20.50;99.90
40996;DHT22;26723;57.478;12.066;2023-09-07T16:06:13;20.50;99.90
40996;DHT22;26723;57.478;12.066;2023-09-07T16:09:23;20.50;99.90
40996;DHT22;26723;57.478;12.066;2023-09-07T16:12:32;20.50;99.90
40996;DHT22;26723;57.478;12.066;2023-09-07T16:15:40;20.40;99.90
40996;DHT22;26723;57.478;12.066;2023-09-07T16:18:49;20.40;99.90
40996;DHT22;26723;57.478;12.066;2023-09-07T16:21:58;20.40;99.90
40996;DHT22;26723;57.478;12.066;2023-09-07T16:25:09;20.40;99.90
40996;DHT22;26723;57.478;12.066;2023-09-07T16:28:18;20.40;99.90
40996;DHT22;26723;57.478;12.066;2023-09-07T16:31:27;20.30;99.90
40996;DHT22;26723;57.478;12.066;2023-09-07T16:34:35;20.30;99.90
40996;DHT22;26723;57.478;12.066;2023-09-07T16:37:44;20.30;99.90
40996;DHT22;26723;57.478;12.066;2023-09-07T16:40:54;20.20;99.90
40996;DHT22;26723;57.478;12.066;2023-09-07T16:44:03;20.20;99.90
40996;DHT22;26723;57.478;12.066;2023-09-07T16:47:12;20.20;99.90
40996;DHT22;26723;57.478;12.066;2023-09-07T16:50:21;20.10;99.90
40996;DHT22;26723;57.478;12.066;2023-09-07T16:53:30;20.00;99.90
40996;DHT22;26723;57.478;12.066;2023-09-07T16:56:40;20.10;99.90
40996;DHT22;26723;57.478;12.066;2023-09-07T16:59:50;19.90;99.90
40996;DHT22;26723;57.478;12.066;2023-09-07T17:03:04;19.90;99.90
40996;DHT22;26723;57.478;12.066;2023-09-07T17:06:13;19.90;99.90
40996;DHT22;26723;57.478;12.066;2023-09-07T17:09:22;19.80;99.90
40996;DHT22;26723;57.478;12.066;2023-09-07T17:12:32;19.70;99.90
40996;DHT22;26723;57.478;12.066;2023-09-07T17:15:41;19.70;99.90
40996;DHT22;26723;57.478;12.066;2023-09-07T17:18:49;19.70;99.90
40996;DHT22;26723;57.478;12.066;2023-09-07T17:21:58;19.60;99.90
40996;DHT22;26723;57.478;12.066;2023-09-07T17:25:07;19.60;99.90
40996;DHT22;26723;57.478;12.066;2023-09-07T17:28:17;19.60;99.90
40996;DHT22;26723;57.478;12.066;2023-09-07T17:31:25;19.50;99.90
40996;DHT22;26723;57.478;12.066;2023-09-07T17:34:34;19.50;99.90
40996;DHT22;26723;57.478;12.066;2023-09-07T17:37:43;19.40;99.90
40996;DHT22;26723;57.478;12.066;2023-09-07T17:40:51;19.30;99.90
40996;DHT22;26723;57.478;12.066;2023-09-07T17:44:01;19.30;99.90
40996;DHT22;26723;57.478;12.066;2023-09-07T17:47:10;19.20;99.90
40996;DHT22;26723;57.478;12.066;2023-09-07T17:50:19;19.10;99.90
40996;DHT22;26723;57.478;12.066;2023-09-07T17:53:27;19.10;99.90
40996;DHT22;26723;57.478;12.066;2023-09-07T17:56:36;19.10;99.90
40996;DHT22;26723;57.478;12.066;2023-09-07T17:59:46;19.10;99.90
40996;DHT22;26723;57.478;12.066;2023-09-07T18:02:59;19.00;99.90
40996;DHT22;26723;57.478;12.066;2023-09-07T18:06:08;19.00;99.90
40996;DHT22;26723;57.478;12.066;2023-09-07T18:09:17;18.90;99.90
40996;DHT22;26723;57.478;12.066;2023-09-07T18:12:25;18.80;99.90
40996;DHT22;26723;57.478;12.066;2023-09-07T18:15:35;18.70;99.90
40996;DHT22;26723;57.478;12.066;2023-09-07T18:18:43;18.70;99.90
40996;DHT22;26723;57.478;12.066;2023-09-07T18:21:52;18.70;99.90
40996;DHT22;26723;57.478;12.066;2023-09-07T18:25:01;18.60;99.90
40996;DHT22;26723;57.478;12.066;2023-09-07T18:28:10;18.60;99.90
40996;DHT22;26723;57.478;12.066;2023-09-07T18:31:20;18.50;99.90
40996;DHT22;26723;57.478;12.066;2023-09-07T18:34:28;18.40;99.90
40996;DHT22;26723;57.478;12.066;2023-09-07T18:37:37;18.40;99.90
40996;DHT22;26723;57.478;12.066;2023-09-07T18:40:46;18.30;99.90
40996;DHT22;26723;57.478;12.066;2023-09-07T18:43:54;18.30;99.90
40996;DHT22;26723;57.478;12.066;2023-09-07T18:47:04;18.20;99.90
40996;DHT22;26723;57.478;12.066;2023-09-07T18:50:13;18.10;99.90
40996;DHT22;26723;57.478;12.066;2023-09-07T18:53:22;18.10;99.90
40996;DHT22;26723;57.478;12.066;2023-09-07T18:56:30;18.00;99.90
40996;DHT22;26723;57.478;12.066;2023-09-07T18:59:39;17.90;99.90
40996;DHT22;26723;57.478;12.066;2023-09-07T19:02:49;17.90;99.90
40996;DHT22;26723;57.478;12.066;2023-09-07T19:05:58;17.90;99.90
40996;DHT22;26723;57.478;12.066;2023-09-07T19:09:07;17.80;99.90
40996;DHT22;26723;57.478;12.066;2023-09-07T19:12:17;17.80;99.90
40996;DHT22;26723;57.478;12.066;2023-09-07T19:15:25;17.70;99.90
40996;DHT22;26723;57.478;12.066;2023-09-07T19:18:35;17.50;99.90
40996;DHT22;26723;57.478;12.066;2023-09-07T19:21:44;17.40;99.90
40996;DHT22;26723;57.478;12.066;2023-09-07T19:24:52;17.50;99.90
40996;DHT22;26723;57.478;12.066;2023-09-07T19:28:01;17.40;99.90
40996;DHT22;26723;57.478;12.066;2023-09-07T19:31:10;17.30;99.90
40996;DHT22;26723;57.478;12.066;2023-09-07T19:34:20;17.40;99.90
40996;DHT22;26723;57.478;12.066;2023-09-07T19:37:29;17.40;99.90